sensor_id;sensor_type;location;lat;lon;timestamp;temperature;humidity
45012;DHT22;63444;48.148;11.542;2023-06-19T00:00:09;23.80;66.00
45012;DHT22;63444;48.148;11.542;2023-06-19T00:02:39;23.80;65.90
45012;DHT22;63444;48.148;11.542;2023-06-19T00:05:06;23.80;66.00
45012;DHT22;63444;48.148;11.542;2023-06-19T00:07:33;23.80;66.20
45012;DHT22;63444;48.148;11.542;2023-06-19T00:09:59;23.80;66.40
45012;DHT22;63444;48.148;11.542;2023-06-19T00:12:24;23.70;66.70
45012;DHT22;63444;48.148;11.542;2023-06-19T00:14:50;23.80;66.70
45012;DHT22;63444;48.148;11.542;2023-06-19T00:17:15;23.80;67.10
45012;DHT22;63444;48.148;11.542;2023-06-19T00:19:42;23.70;67.00
45012;DHT22;63444;48.148;11.542;2023-06-19T00:22:08;23.70;67.20
45012;DHT22;63444;48.148;11.542;2023-06-19T00:24:33;23.60;67.40
45012;DHT22;63444;48.148;11.542;2023-06-19T00:26:59;23.70;67.60
45012;DHT22;63444;48.148;11.542;2023-06-19T00:29:32;23.70;67.90
45012;DHT22;63444;48.148;11.542;2023-06-19T00:31:58;23.60;68.20
45012;DHT22;63444;48.148;11.542;2023-06-19T00:34:24;23.60;68.20
45012;DHT22;63444;48.148;11.542;2023-06-19T00:36:50;23.50;68.30
45012;DHT22;63444;48.148;11.542;2023-06-19T00:39:16;23.40;68.50
45012;DHT22;63444;48.148;11.542;2023-06-19T00:41:43;23.40;68.60
45012;DHT22;63444;48.148;11.542;2023-06-19T00:44:09;23.40;68.70
45012;DHT22;63444;48.148;11.542;2023-06-19T00:46:36;23.40;68.90
45012;DHT22;63444;48.148;11.542;2023-06-19T00:49:03;23.40;69.10
45012;DHT22;63444;48.148;11.542;2023-06-19T00:51:28;23.30;69.40
45012;DHT22;63444;48.148;11.542;2023-06-19T00:53:55;23.30;69.40
45012;DHT22;63444;48.148;11.542;2023-06-19T00:56:20;23.20;69.50
45012;DHT22;63444;48.148;11.542;2023-06-19T00:58:46;23.20;69.70
45012;DHT22;63444;48.148;11.542;2023-06-19T01:01:12;23.20;69.70
45012;DHT22;63444;48.148;11.542;2023-06-19T01:03:37;23.20;70.00
45012;DHT22;63444;48.148;11.542;2023-06-19T01:06:08;23.20;70.10
45012;DHT22;63444;48.148;11.542;2023-06-19T01:08:55;23.20;70.10
45012;DHT22;63444;48.148;11.542;2023-06-19T01:11:24;23.20;70.20
45012;DHT22;63444;48.148;11.542;2023-06-19T01:13:58;23.10;70.00
45012;DHT22;63444;48.148;11.542;2023-06-19T01:16:26;23.10;70.00
45012;DHT22;63444;48.148;11.542;2023-06-19T01:18:53;23.10;71.00
45012;DHT22;63444;48.148;11.542;2023-06-19T01:21:19;23.20;70.30
45012;DHT22;63444;48.148;11.542;2023-06-19T01:23:46;23.20;70.40
45012;DHT22;63444;48.148;11.542;2023-06-19T01:26:12;23.20;70.40
45012;DHT22;63444;48.148;11.542;2023-06-19T01:28:42;23.20;70.50
45012;DHT22;63444;48.148;11.542;2023-06-19T01:31:33;23.20;70.60
45012;DHT22;63444;48.148;11.542;2023-06-19T01:34:01;23.20;70.60
45012;DHT22;63444;48.148;11.542;2023-06-19T01:36:28;23.20;70.80
45012;DHT22;63444;48.148;11.542;2023-06-19T01:38:57;23.20;70.80
45012;DHT22;63444;48.148;11.542;2023-06-19T01:41:24;23.20;71.00
45012;DHT22;63444;48.148;11.542;2023-06-19T01:43:51;23.20;71.00
45012;DHT22;63444;48.148;11.542;2023-06-19T01:46:16;23.20;71.10
45012;DHT22;63444;48.148;11.542;2023-06-19T01:48:42;23.30;71.20
45012;DHT22;63444;48.148;11.542;2023-06-19T01:51:08;23.20;71.20
45012;DHT22;63444;48.148;11.542;2023-06-19T01:53:33;23.20;71.30
45012;DHT22;63444;48.148;11.542;2023-06-19T01:56:00;23.20;71.30
45012;DHT22;63444;48.148;11.542;2023-06-19T01:58:26;23.10;71.40
45012;DHT22;63444;48.148;11.542;2023-06-19T02:00:51;23.10;71.50
45012;DHT22;63444;48.148;11.542;2023-06-19T02:03:17;23.10;71.60
45012;DHT22;63444;48.148;11.542;2023-06-19T02:05:43;23.20;71.80
45012;DHT22;63444;48.148;11.542;2023-06-19T02:08:08;23.10;71.80
45012;DHT22;63444;48.148;11.542;2023-06-19T02:10:34;23.10;71.90
45012;DHT22;63444;48.148;11.542;2023-06-19T02:13:00;23.10;72.00
45012;DHT22;63444;48.148;11.542;2023-06-19T02:15:25;23.10;72.10
45012;DHT22;63444;48.148;11.542;2023-06-19T02:17:51;23.10;72.30
45012;DHT22;63444;48.148;11.542;2023-06-19T02:20:23;23.10;72.50
45012;DHT22;63444;48.148;11.542;2023-06-19T02:22:50;23.00;72.40
45012;DHT22;63444;48.148;11.542;2023-06-19T02:25:16;23.00;72.40
45012;DHT22;63444;48.148;11.542;2023-06-19T02:27:41;23.00;72.40
45012;DHT22;63444;48.148;11.542;2023-06-19T02:30:07;23.00;72.50
45012;DHT22;63444;48.148;11.542;2023-06-19T02:32:33;23.00;72.70
45012;DHT22;63444;48.148;11.542;2023-06-19T02:34:58;23.00;72.70
45012;DHT22;63444;48.148;11.542;2023-06-19T02:37:24;23.00;72.80
45012;DHT22;63444;48.148;11.542;2023-06-19T02:39:50;23.00;72.90
45012;DHT22;63444;48.148;11.542;2023-06-19T02:42:15;22.90;72.90
45012;DHT22;63444;48.148;11.542;2023-06-19T02:44:41;22.90;73.20
45012;DHT22;63444;48.148;11.542;2023-06-19T02:47:08;22.90;73.50
45012;DHT22;63444;48.148;11.542;2023-06-19T02:49:34;22.90;73.60
45012;DHT22;63444;48.148;11.542;2023-06-19T02:51:59;22.90;73.60
45012;DHT22;63444;48.148;11.542;2023-06-19T02:54:25;22.90;73.70
45012;DHT22;63444;48.148;11.542;2023-06-19T02:56:51;22.90;73.80
45012;DHT22;63444;48.148;11.542;2023-06-19T02:59:16;22.90;73.90
45012;DHT22;63444;48.148;11.542;2023-06-19T03:01:42;22.90;74.30
45012;DHT22;63444;48.148;11.542;2023-06-19T03:04:07;22.80;74.60
45012;DHT22;63444;48.148;11.542;2023-06-19T03:06:33;22.80;74.90
45012;DHT22;63444;48.148;11.542;2023-06-19T03:09:04;22.80;75.00
45012;DHT22;63444;48.148;11.542;2023-06-19T03:11:30;22.70;75.20
45012;DHT22;63444;48.148;11.542;2023-06-19T03:13:56;22.80;75.50
45012;DHT22;63444;48.148;11.542;2023-06-19T03:16:22;22.70;75.70
45012;DHT22;63444;48.148;11.542;2023-06-19T03:18:47;22.70;75.90
45012;DHT22;63444;48.148;11.542;2023-06-19T03:21:14;22.70;76.30
45012;DHT22;63444;48.148;11.542;2023-06-19T03:23:40;22.70;76.60
45012;DHT22;63444;48.148;11.542;2023-06-19T03:26:09;22.70;76.90
45012;DHT22;63444;48.148;11.542;2023-06-19T03:28:36;22.70;77.20
45012;DHT22;63444;48.148;11.542;2023-06-19T03:31:02;22.60;77.40
45012;DHT22;63444;48.148;11.542;2023-06-19T03:33:28;22.60;77.60
45012;DHT22;63444;48.148;11.542;2023-06-19T03:35:54;22.60;77.90
45012;DHT22;63444;48.148;11.542;2023-06-19T03:38:20;22.60;78.00
45012;DHT22;63444;48.148;11.542;2023-06-19T03:40:45;22.50;78.90
45012;DHT22;63444;48.148;11.542;2023-06-19T03:43:11;22.60;78.30
45012;DHT22;63444;48.148;11.542;2023-06-19T03:45:37;22.50;78.40
45012;DHT22;63444;48.148;11.542;2023-06-19T03:48:03;22.60;78.70
45012;DHT22;63444;48.148;11.542;2023-06-19T03:50:28;22.60;78.60
45012;DHT22;63444;48.148;11.542;2023-06-19T03:52:54;22.60;78.50
45012;DHT22;63444;48.148;11.542;2023-06-19T03:55:19;22.50;78.60
45012;DHT22;63444;48.148;11.542;2023-06-19T03:57:45;22.60;78.70
45012;DHT22;63444;48.148;11.542;2023-06-19T04:00:11;22.60;78.80
45012;DHT22;63444;48.148;11.542;2023-06-19T04:02:38;22.60;78.70
45012;DHT22;63444;48.148;11.542;2023-06-19T04:05:05;22.60;78.60
45012;DHT22;63444;48.148;11.542;2023-06-19T04:07:31;22.60;78.50
45012;DHT22;63444;48.148;11.542;2023-06-19T04:09:57;22.60;78.10
45012;DHT22;63444;48.148;11.542;2023-06-19T04:12:23;22.60;78.00
45012;DHT22;63444;48.148;11.542;2023-06-19T04:14:48;22.60;78.10
45012;DHT22;63444;48.148;11.542;2023-06-19T04:17:14;22.50;78.20
45012;DHT22;63444;48.148;11.542;2023-06-19T04:19:40;22.50;78.50
45012;DHT22;63444;48.148;11.542;2023-06-19T04:22:06;22.50;78.80
45012;DHT22;63444;48.148;11.542;2023-06-19T04:24:32;22.50;79.00
45012;DHT22;63444;48.148;11.542;2023-06-19T04:26:57;22.50;79.20
45012;DHT22;63444;48.148;11.542;2023-06-19T04:29:23;22.50;79.40
45012;DHT22;63444;48.148;11.542;2023-06-19T04:31:49;22.50;79.70
45012;DHT22;63444;48.148;11.542;2023-06-19T04:34:16;22.50;80.00
45012;DHT22;63444;48.148;11.542;2023-06-19T04:36:42;22.50;80.10
45012;DHT22;63444;48.148;11.542;2023-06-19T04:39:09;22.60;80.20
45012;DHT22;63444;48.148;11.542;2023-06-19T04:41:35;22.50;80.10
45012;DHT22;63444;48.148;11.542;2023-06-19T04:44:06;22.60;80.40
45012;DHT22;63444;48.148;11.542;2023-06-19T04:46:33;22.60;80.60
45012;DHT22;63444;48.148;11.542;2023-06-19T04:48:58;22.60;80.60
45012;DHT22;63444;48.148;11.542;2023-06-19T04:51:24;22.60;80.70
45012;DHT22;63444;48.148;11.542;2023-06-19T04:53:51;22.60;80.70
45012;DHT22;63444;48.148;11.542;2023-06-19T04:56:17;22.70;81.00
45012;DHT22;63444;48.148;11.542;2023-06-19T04:58:42;22.70;80.70
45012;DHT22;63444;48.148;11.542;2023-06-19T05:01:12;22.70;80.70
45012;DHT22;63444;48.148;11.542;2023-06-19T05:03:39;22.70;81.00
45012;DHT22;63444;48.148;11.542;2023-06-19T05:06:05;22.70;81.20
45012;DHT22;63444;48.148;11.542;2023-06-19T05:08:30;22.80;81.50
45012;DHT22;63444;48.148;11.542;2023-06-19T05:10:56;22.70;81.60
45012;DHT22;63444;48.148;11.542;2023-06-19T05:13:23;22.70;82.40
45012;DHT22;63444;48.148;11.542;2023-06-19T05:15:49;22.70;83.20
45012;DHT22;63444;48.148;11.542;2023-06-19T05:18:16;22.70;84.20
45012;DHT22;63444;48.148;11.542;2023-06-19T05:20:41;22.70;84.10
45012;DHT22;63444;48.148;11.542;2023-06-19T05:23:07;22.70;83.80
45012;DHT22;63444;48.148;11.542;2023-06-19T05:25:32;22.70;84.00
45012;DHT22;63444;48.148;11.542;2023-06-19T05:27:58;22.70;84.10
45012;DHT22;63444;48.148;11.542;2023-06-19T05:30:23;22.70;84.10
45012;DHT22;63444;48.148;11.542;2023-06-19T05:32:49;22.70;84.00
45012;DHT22;63444;48.148;11.542;2023-06-19T05:35:15;22.70;84.10
45012;DHT22;63444;48.148;11.542;2023-06-19T05:37:40;22.70;84.10
45012;DHT22;63444;48.148;11.542;2023-06-19T05:40:09;22.70;83.90
45012;DHT22;63444;48.148;11.542;2023-06-19T05:42:38;22.70;84.00
45012;DHT22;63444;48.148;11.542;2023-06-19T05:45:04;22.70;84.20
45012;DHT22;63444;48.148;11.542;2023-06-19T05:47:30;22.70;83.90
45012;DHT22;63444;48.148;11.542;2023-06-19T05:49:56;22.70;83.90
45012;DHT22;63444;48.148;11.542;2023-06-19T05:52:22;22.70;83.70
45012;DHT22;63444;48.148;11.542;2023-06-19T05:54:48;22.70;83.30
45012;DHT22;63444;48.148;11.542;2023-06-19T05:57:14;22.70;83.40
45012;DHT22;63444;48.148;11.542;2023-06-19T05:59:41;22.70;83.10
45012;DHT22;63444;48.148;11.542;2023-06-19T06:02:07;22.60;82.80
45012;DHT22;63444;48.148;11.542;2023-06-19T06:04:33;22.70;82.60
45012;DHT22;63444;48.148;11.542;2023-06-19T06:07:00;22.70;82.40
45012;DHT22;63444;48.148;11.542;2023-06-19T06:09:25;22.70;82.20
45012;DHT22;63444;48.148;11.542;2023-06-19T06:11:52;22.80;82.20
45012;DHT22;63444;48.148;11.542;2023-06-19T06:14:18;22.80;82.00
45012;DHT22;63444;48.148;11.542;2023-06-19T06:16:43;22.90;81.90
45012;DHT22;63444;48.148;11.542;2023-06-19T06:19:09;22.90;81.70
45012;DHT22;63444;48.148;11.542;2023-06-19T06:21:34;23.00;81.60
45012;DHT22;63444;48.148;11.542;2023-06-19T06:24:00;23.00;81.50
45012;DHT22;63444;48.148;11.542;2023-06-19T06:26:26;23.00;82.20
45012;DHT22;63444;48.148;11.542;2023-06-19T06:28:53;23.10;81.50
45012;DHT22;63444;48.148;11.542;2023-06-19T06:31:19;23.20;81.20
45012;DHT22;63444;48.148;11.542;2023-06-19T06:33:44;23.20;80.90
45012;DHT22;63444;48.148;11.542;2023-06-19T06:36:10;23.30;80.80
45012;DHT22;63444;48.148;11.542;2023-06-19T06:38:36;23.40;80.80
45012;DHT22;63444;48.148;11.542;2023-06-19T06:41:02;23.50;80.80
45012;DHT22;63444;48.148;11.542;2023-06-19T06:43:28;23.60;80.50
45012;DHT22;63444;48.148;11.542;2023-06-19T06:45:53;23.70;80.50
45012;DHT22;63444;48.148;11.542;2023-06-19T06:48:19;23.80;80.30
45012;DHT22;63444;48.148;11.542;2023-06-19T06:50:44;24.00;80.80
45012;DHT22;63444;48.148;11.542;2023-06-19T06:53:10;24.10;79.70
45012;DHT22;63444;48.148;11.542;2023-06-19T06:55:35;24.20;79.50
45012;DHT22;63444;48.148;11.542;2023-06-19T06:58:01;24.30;79.40
45012;DHT22;63444;48.148;11.542;2023-06-19T07:00:27;24.40;79.40
45012;DHT22;63444;48.148;11.542;2023-06-19T07:02:53;24.50;78.90
45012;DHT22;63444;48.148;11.542;2023-06-19T07:05:18;24.60;78.60
45012;DHT22;63444;48.148;11.542;2023-06-19T07:07:44;24.60;78.50
45012;DHT22;63444;48.148;11.542;2023-06-19T07:10:10;24.60;78.50
45012;DHT22;63444;48.148;11.542;2023-06-19T07:12:35;24.70;78.50
45012;DHT22;63444;48.148;11.542;2023-06-19T07:15:09;24.70;78.50
45012;DHT22;63444;48.148;11.542;2023-06-19T07:17:34;24.80;78.70
45012;DHT22;63444;48.148;11.542;2023-06-19T07:20:00;24.90;78.90
45012;DHT22;63444;48.148;11.542;2023-06-19T07:22:25;25.00;78.80
45012;DHT22;63444;48.148;11.542;2023-06-19T07:24:51;25.00;78.60
45012;DHT22;63444;48.148;11.542;2023-06-19T07:27:17;25.20;78.40
45012;DHT22;63444;48.148;11.542;2023-06-19T07:29:44;25.40;77.90
45012;DHT22;63444;48.148;11.542;2023-06-19T07:32:09;25.60;78.00
45012;DHT22;63444;48.148;11.542;2023-06-19T07:34:36;25.70;77.60
45012;DHT22;63444;48.148;11.542;2023-06-19T07:37:01;25.80;77.00
45012;DHT22;63444;48.148;11.542;2023-06-19T07:39:27;25.90;76.90
45012;DHT22;63444;48.148;11.542;2023-06-19T07:41:52;25.90;76.70
45012;DHT22;63444;48.148;11.542;2023-06-19T07:44:18;26.00;76.60
45012;DHT22;63444;48.148;11.542;2023-06-19T07:46:46;26.00;76.80
45012;DHT22;63444;48.148;11.542;2023-06-19T07:49:12;26.10;76.40
45012;DHT22;63444;48.148;11.542;2023-06-19T07:51:37;26.30;75.50
45012;DHT22;63444;48.148;11.542;2023-06-19T07:54:03;26.50;75.70
45012;DHT22;63444;48.148;11.542;2023-06-19T07:56:28;26.50;75.50
45012;DHT22;63444;48.148;11.542;2023-06-19T07:58:54;26.70;75.50
45012;DHT22;63444;48.148;11.542;2023-06-19T08:01:20;26.80;75.00
45012;DHT22;63444;48.148;11.542;2023-06-19T08:03:45;27.10;74.80
45012;DHT22;63444;48.148;11.542;2023-06-19T08:06:11;27.20;74.50
45012;DHT22;63444;48.148;11.542;2023-06-19T08:08:37;27.30;74.30
45012;DHT22;63444;48.148;11.542;2023-06-19T08:11:03;27.40;74.20
45012;DHT22;63444;48.148;11.542;2023-06-19T08:13:28;27.60;73.40
45012;DHT22;63444;48.148;11.542;2023-06-19T08:15:54;27.80;72.90
45012;DHT22;63444;48.148;11.542;2023-06-19T08:18:19;28.00;71.90
45012;DHT22;63444;48.148;11.542;2023-06-19T08:20:45;28.30;72.00
45012;DHT22;63444;48.148;11.542;2023-06-19T08:23:10;28.50;71.60
45012;DHT22;63444;48.148;11.542;2023-06-19T08:25:36;28.80;71.20
45012;DHT22;63444;48.148;11.542;2023-06-19T08:28:01;29.00;70.60
45012;DHT22;63444;48.148;11.542;2023-06-19T08:30:27;29.10;70.10
45012;DHT22;63444;48.148;11.542;2023-06-19T08:32:53;29.20;70.00
45012;DHT22;63444;48.148;11.542;2023-06-19T08:35:18;29.30;70.20
45012;DHT22;63444;48.148;11.542;2023-06-19T08:37:44;29.50;69.20
45012;DHT22;63444;48.148;11.542;2023-06-19T08:40:11;29.80;69.40
45012;DHT22;63444;48.148;11.542;2023-06-19T08:42:37;30.10;68.90
45012;DHT22;63444;48.148;11.542;2023-06-19T08:45:06;30.30;67.90
45012;DHT22;63444;48.148;11.542;2023-06-19T08:47:32;30.50;68.00
45012;DHT22;63444;48.148;11.542;2023-06-19T08:49:59;30.60;66.20
45012;DHT22;63444;48.148;11.542;2023-06-19T08:52:24;30.60;67.00
45012;DHT22;63444;48.148;11.542;2023-06-19T08:54:50;30.70;66.40
45012;DHT22;63444;48.148;11.542;2023-06-19T08:57:16;30.60;66.70
45012;DHT22;63444;48.148;11.542;2023-06-19T08:59:48;30.70;66.40
45012;DHT22;63444;48.148;11.542;2023-06-19T09:02:14;31.00;63.20
45012;DHT22;63444;48.148;11.542;2023-06-19T09:04:40;31.00;61.50
45012;DHT22;63444;48.148;11.542;2023-06-19T09:07:07;31.00;61.60
45012;DHT22;63444;48.148;11.542;2023-06-19T09:09:33;31.00;61.70
45012;DHT22;63444;48.148;11.542;2023-06-19T09:12:07;30.80;62.10
45012;DHT22;63444;48.148;11.542;2023-06-19T09:14:41;30.70;62.90
45012;DHT22;63444;48.148;11.542;2023-06-19T09:17:10;30.10;64.20
45012;DHT22;63444;48.148;11.542;2023-06-19T09:19:36;29.80;65.00
45012;DHT22;63444;48.148;11.542;2023-06-19T09:22:02;29.70;66.00
45012;DHT22;63444;48.148;11.542;2023-06-19T09:24:35;29.70;66.40
45012;DHT22;63444;48.148;11.542;2023-06-19T09:27:13;29.70;66.50
45012;DHT22;63444;48.148;11.542;2023-06-19T09:29:45;29.60;67.90
45012;DHT22;63444;48.148;11.542;2023-06-19T09:32:18;29.70;67.50
45012;DHT22;63444;48.148;11.542;2023-06-19T09:34:44;29.60;67.50
45012;DHT22;63444;48.148;11.542;2023-06-19T09:37:10;29.40;68.30
45012;DHT22;63444;48.148;11.542;2023-06-19T09:39:37;29.30;69.00
45012;DHT22;63444;48.148;11.542;2023-06-19T09:42:03;29.30;69.30
45012;DHT22;63444;48.148;11.542;2023-06-19T09:44:31;29.30;69.70
45012;DHT22;63444;48.148;11.542;2023-06-19T09:47:03;29.50;69.80
45012;DHT22;63444;48.148;11.542;2023-06-19T09:49:34;29.70;69.70
45012;DHT22;63444;48.148;11.542;2023-06-19T09:52:01;30.00;70.30
45012;DHT22;63444;48.148;11.542;2023-06-19T09:54:28;30.20;68.80
45012;DHT22;63444;48.148;11.542;2023-06-19T09:56:55;30.30;68.50
45012;DHT22;63444;48.148;11.542;2023-06-19T09:59:24;30.40;68.20
45012;DHT22;63444;48.148;11.542;2023-06-19T10:01:50;30.30;68.30
45012;DHT22;63444;48.148;11.542;2023-06-19T10:04:15;30.30;68.40
45012;DHT22;63444;48.148;11.542;2023-06-19T10:06:46;30.30;68.50
45012;DHT22;63444;48.148;11.542;2023-06-19T10:09:14;30.40;68.30
45012;DHT22;63444;48.148;11.542;2023-06-19T10:11:50;30.50;69.20
45012;DHT22;63444;48.148;11.542;2023-06-19T10:14:17;30.60;67.90
45012;DHT22;63444;48.148;11.542;2023-06-19T10:16:44;30.60;67.70
45012;DHT22;63444;48.148;11.542;2023-06-19T10:19:18;30.50;67.90
45012;DHT22;63444;48.148;11.542;2023-06-19T10:21:50;30.50;68.00
45012;DHT22;63444;48.148;11.542;2023-06-19T10:24:19;30.60;67.90
45012;DHT22;63444;48.148;11.542;2023-06-19T10:27:02;30.50;67.50
45012;DHT22;63444;48.148;11.542;2023-06-19T10:29:40;30.30;68.00
45012;DHT22;63444;48.148;11.542;2023-06-19T10:32:06;30.20;68.40
45012;DHT22;63444;48.148;11.542;2023-06-19T10:34:35;30.10;68.20
45012;DHT22;63444;48.148;11.542;2023-06-19T10:37:01;30.10;68.50
45012;DHT22;63444;48.148;11.542;2023-06-19T10:39:27;30.20;68.30
45012;DHT22;63444;48.148;11.542;2023-06-19T10:41:53;30.30;67.70
45012;DHT22;63444;48.148;11.542;2023-06-19T10:44:18;30.50;67.50
45012;DHT22;63444;48.148;11.542;2023-06-19T10:46:44;30.60;66.70
45012;DHT22;63444;48.148;11.542;2023-06-19T10:49:10;30.60;66.50
45012;DHT22;63444;48.148;11.542;2023-06-19T10:51:37;30.70;66.00
45012;DHT22;63444;48.148;11.542;2023-06-19T10:54:04;30.80;65.70
45012;DHT22;63444;48.148;11.542;2023-06-19T10:56:30;30.80;65.30
45012;DHT22;63444;48.148;11.542;2023-06-19T10:59:00;30.80;64.80
45012;DHT22;63444;48.148;11.542;2023-06-19T11:01:40;30.90;64.40
45012;DHT22;63444;48.148;11.542;2023-06-19T11:04:08;30.90;64.60
45012;DHT22;63444;48.148;11.542;2023-06-19T11:06:34;30.90;64.20
45012;DHT22;63444;48.148;11.542;2023-06-19T11:09:00;30.80;64.20
45012;DHT22;63444;48.148;11.542;2023-06-19T11:11:42;30.70;63.90
45012;DHT22;63444;48.148;11.542;2023-06-19T11:14:08;30.80;63.90
45012;DHT22;63444;48.148;11.542;2023-06-19T11:16:35;30.80;63.50
45012;DHT22;63444;48.148;11.542;2023-06-19T11:19:02;30.70;63.60
45012;DHT22;63444;48.148;11.542;2023-06-19T11:21:33;30.70;63.80
45012;DHT22;63444;48.148;11.542;2023-06-19T11:24:02;30.60;63.50
45012;DHT22;63444;48.148;11.542;2023-06-19T11:26:27;30.60;63.80
45012;DHT22;63444;48.148;11.542;2023-06-19T11:28:54;30.60;63.60
45012;DHT22;63444;48.148;11.542;2023-06-19T11:31:26;30.50;64.00
45012;DHT22;63444;48.148;11.542;2023-06-19T11:33:59;30.50;64.00
45012;DHT22;63444;48.148;11.542;2023-06-19T11:36:26;30.40;63.90
45012;DHT22;63444;48.148;11.542;2023-06-19T11:38:53;30.40;64.10
45012;DHT22;63444;48.148;11.542;2023-06-19T11:41:26;30.30;63.90
45012;DHT22;63444;48.148;11.542;2023-06-19T11:44:03;30.30;64.10
45012;DHT22;63444;48.148;11.542;2023-06-19T11:46:30;30.30;64.10
45012;DHT22;63444;48.148;11.542;2023-06-19T11:49:17;30.40;63.80
45012;DHT22;63444;48.148;11.542;2023-06-19T11:51:45;30.50;63.90
45012;DHT22;63444;48.148;11.542;2023-06-19T11:54:14;30.50;63.80
45012;DHT22;63444;48.148;11.542;2023-06-19T11:56:48;30.60;63.40
45012;DHT22;63444;48.148;11.542;2023-06-19T11:59:14;30.70;63.10
45012;DHT22;63444;48.148;11.542;2023-06-19T12:01:40;30.70;62.80
45012;DHT22;63444;48.148;11.542;2023-06-19T12:04:06;30.60;62.70
45012;DHT22;63444;48.148;11.542;2023-06-19T12:06:32;30.60;63.70
45012;DHT22;63444;48.148;11.542;2023-06-19T12:08:58;30.50;62.90
45012;DHT22;63444;48.148;11.542;2023-06-19T12:11:24;30.40;62.80
45012;DHT22;63444;48.148;11.542;2023-06-19T12:13:50;30.40;63.30
45012;DHT22;63444;48.148;11.542;2023-06-19T12:16:16;30.50;63.30
45012;DHT22;63444;48.148;11.542;2023-06-19T12:18:42;30.50;62.90
45012;DHT22;63444;48.148;11.542;2023-06-19T12:21:07;30.60;62.70
45012;DHT22;63444;48.148;11.542;2023-06-19T12:23:33;30.70;62.40
45012;DHT22;63444;48.148;11.542;2023-06-19T12:25:59;30.70;62.10
45012;DHT22;63444;48.148;11.542;2023-06-19T12:28:25;30.60;62.30
45012;DHT22;63444;48.148;11.542;2023-06-19T12:30:51;30.50;62.30
45012;DHT22;63444;48.148;11.542;2023-06-19T12:33:17;30.50;62.50
45012;DHT22;63444;48.148;11.542;2023-06-19T12:35:44;30.30;62.60
45012;DHT22;63444;48.148;11.542;2023-06-19T12:38:10;30.30;63.00
45012;DHT22;63444;48.148;11.542;2023-06-19T12:40:37;30.20;63.00
45012;DHT22;63444;48.148;11.542;2023-06-19T12:43:03;30.30;63.20
45012;DHT22;63444;48.148;11.542;2023-06-19T12:45:28;30.20;62.90
45012;DHT22;63444;48.148;11.542;2023-06-19T12:47:54;30.20;63.20
45012;DHT22;63444;48.148;11.542;2023-06-19T12:50:20;30.30;63.00
45012;DHT22;63444;48.148;11.542;2023-06-19T12:52:45;30.30;63.10
45012;DHT22;63444;48.148;11.542;2023-06-19T12:55:11;30.30;63.90
45012;DHT22;63444;48.148;11.542;2023-06-19T12:57:36;30.30;63.00
45012;DHT22;63444;48.148;11.542;2023-06-19T13:00:03;30.40;63.00
45012;DHT22;63444;48.148;11.542;2023-06-19T13:02:33;30.30;62.90
45012;DHT22;63444;48.148;11.542;2023-06-19T13:04:59;30.30;62.70
45012;DHT22;63444;48.148;11.542;2023-06-19T13:07:24;30.20;62.80
45012;DHT22;63444;48.148;11.542;2023-06-19T13:09:50;30.20;63.20
45012;DHT22;63444;48.148;11.542;2023-06-19T13:12:15;30.20;64.10
45012;DHT22;63444;48.148;11.542;2023-06-19T13:14:41;30.10;64.30
45012;DHT22;63444;48.148;11.542;2023-06-19T13:17:07;30.10;64.20
45012;DHT22;63444;48.148;11.542;2023-06-19T13:19:33;30.00;64.60
45012;DHT22;63444;48.148;11.542;2023-06-19T13:21:58;29.90;64.50
45012;DHT22;63444;48.148;11.542;2023-06-19T13:24:24;29.80;64.90
45012;DHT22;63444;48.148;11.542;2023-06-19T13:26:53;29.70;65.10
45012;DHT22;63444;48.148;11.542;2023-06-19T13:29:18;29.60;65.30
45012;DHT22;63444;48.148;11.542;2023-06-19T13:31:44;29.60;66.20
45012;DHT22;63444;48.148;11.542;2023-06-19T13:34:10;29.60;65.40
45012;DHT22;63444;48.148;11.542;2023-06-19T13:36:35;29.60;65.50
45012;DHT22;63444;48.148;11.542;2023-06-19T13:39:01;29.50;65.70
45012;DHT22;63444;48.148;11.542;2023-06-19T13:41:27;29.50;65.80
45012;DHT22;63444;48.148;11.542;2023-06-19T13:43:56;29.50;65.70
45012;DHT22;63444;48.148;11.542;2023-06-19T13:46:22;29.40;65.50
45012;DHT22;63444;48.148;11.542;2023-06-19T13:48:47;29.50;65.50
45012;DHT22;63444;48.148;11.542;2023-06-19T13:51:20;29.50;65.50
45012;DHT22;63444;48.148;11.542;2023-06-19T13:53:45;29.50;65.60
45012;DHT22;63444;48.148;11.542;2023-06-19T13:56:12;29.50;65.30
45012;DHT22;63444;48.148;11.542;2023-06-19T13:58:38;29.50;64.90
45012;DHT22;63444;48.148;11.542;2023-06-19T14:01:04;29.60;65.20
45012;DHT22;63444;48.148;11.542;2023-06-19T14:03:30;29.60;65.20
45012;DHT22;63444;48.148;11.542;2023-06-19T14:05:56;29.60;65.20
45012;DHT22;63444;48.148;11.542;2023-06-19T14:08:22;29.60;65.00
45012;DHT22;63444;48.148;11.542;2023-06-19T14:10:48;29.60;65.00
45012;DHT22;63444;48.148;11.542;2023-06-19T14:13:14;29.60;65.10
45012;DHT22;63444;48.148;11.542;2023-06-19T14:15:39;29.70;64.80
45012;DHT22;63444;48.148;11.542;2023-06-19T14:18:05;29.70;65.00
45012;DHT22;63444;48.148;11.542;2023-06-19T14:20:31;29.70;64.80
45012;DHT22;63444;48.148;11.542;2023-06-19T14:22:56;29.70;64.50
45012;DHT22;63444;48.148;11.542;2023-06-19T14:25:22;29.70;64.50
45012;DHT22;63444;48.148;11.542;2023-06-19T14:27:48;29.70;64.80
45012;DHT22;63444;48.148;11.542;2023-06-19T14:30:13;29.70;64.60
45012;DHT22;63444;48.148;11.542;2023-06-19T14:32:39;29.70;64.60
45012;DHT22;63444;48.148;11.542;2023-06-19T14:35:05;29.70;64.90
45012;DHT22;63444;48.148;11.542;2023-06-19T14:37:31;29.70;65.20
45012;DHT22;63444;48.148;11.542;2023-06-19T14:39:56;29.60;65.10
45012;DHT22;63444;48.148;11.542;2023-06-19T14:42:22;29.60;64.80
45012;DHT22;63444;48.148;11.542;2023-06-19T14:44:48;29.60;65.00
45012;DHT22;63444;48.148;11.542;2023-06-19T14:47:13;29.60;64.80
45012;DHT22;63444;48.148;11.542;2023-06-19T14:49:39;29.60;64.70
45012;DHT22;63444;48.148;11.542;2023-06-19T14:52:06;29.60;64.50
45012;DHT22;63444;48.148;11.542;2023-06-19T14:54:32;29.60;64.80
45012;DHT22;63444;48.148;11.542;2023-06-19T14:56:57;29.60;65.20
45012;DHT22;63444;48.148;11.542;2023-06-19T14:59:23;29.60;65.20
45012;DHT22;63444;48.148;11.542;2023-06-19T15:01:49;29.60;65.40
45012;DHT22;63444;48.148;11.542;2023-06-19T15:04:15;29.60;65.30
45012;DHT22;63444;48.148;11.542;2023-06-19T15:06:41;29.50;65.20
45012;DHT22;63444;48.148;11.542;2023-06-19T15:09:06;29.50;65.20
45012;DHT22;63444;48.148;11.542;2023-06-19T15:11:32;29.50;65.10